sensor_id;sensor_type;location;lat;lon;timestamp;temperature;humidity
24686;DHT22;12804;51.176;4.452;2024-02-28T00:01:04;5.50;99.90
24686;DHT22;12804;51.176;4.452;2024-02-28T00:03:30;5.50;99.90
24686;DHT22;12804;51.176;4.452;2024-02-28T00:05:57;5.40;99.90
24686;DHT22;12804;51.176;4.452;2024-02-28T00:08:24;5.40;99.90
24686;DHT22;12804;51.176;4.452;2024-02-28T00:10:50;5.40;99.90
24686;DHT22;12804;51.176;4.452;2024-02-28T00:13:16;5.20;99.90
24686;DHT22;12804;51.176;4.452;2024-02-28T00:15:42;5.20;99.90
24686;DHT22;12804;51.176;4.452;2024-02-28T00:18:11;5.10;99.90
24686;DHT22;12804;51.176;4.452;2024-02-28T00:20:37;5.10;99.90
24686;DHT22;12804;51.176;4.452;2024-02-28T00:23:03;5.00;99.90
24686;DHT22;12804;51.176;4.452;2024-02-28T00:25:28;5.00;99.90
24686;DHT22;12804;51.176;4.452;2024-02-28T00:27:54;5.00;99.90
24686;DHT22;12804;51.176;4.452;2024-02-28T00:30:20;4.90;99.90
24686;DHT22;12804;51.176;4.452;2024-02-28T00:32:46;4.90;99.90
24686;DHT22;12804;51.176;4.452;2024-02-28T00:35:12;4.80;99.90
24686;DHT22;12804;51.176;4.452;2024-02-28T00:37:37;4.80;99.90
24686;DHT22;12804;51.176;4.452;2024-02-28T00:40:03;4.80;99.90
24686;DHT22;12804;51.176;4.452;2024-02-28T00:42:29;4.80;99.90
24686;DHT22;12804;51.176;4.452;2024-02-28T00:44:56;4.80;99.90
24686;DHT22;12804;51.176;4.452;2024-02-28T00:47:22;4.70;99.90
24686;DHT22;12804;51.176;4.452;2024-02-28T00:49:49;4.80;99.90
24686;DHT22;12804;51.176;4.452;2024-02-28T00:52:14;4.70;99.90
24686;DHT22;12804;51.176;4.452;2024-02-28T00:54:40;4.70;99.90
24686;DHT22;12804;51.176;4.452;2024-02-28T00:57:09;4.70;99.90
24686;DHT22;12804;51.176;4.452;2024-02-28T00:59:35;4.70;99.90
24686;DHT22;12804;51.176;4.452;2024-02-28T01:02:01;4.60;99.90
24686;DHT22;12804;51.176;4.452;2024-02-28T01:04:29;4.60;99.90
24686;DHT22;12804;51.176;4.452;2024-02-28T01:06:54;4.70;99.90
24686;DHT22;12804;51.176;4.452;2024-02-28T01:09:21;4.60;99.90
24686;DHT22;12804;51.176;4.452;2024-02-28T01:11:47;4.60;99.90
24686;DHT22;12804;51.176;4.452;2024-02-28T01:14:13;4.50;99.90
24686;DHT22;12804;51.176;4.452;2024-02-28T01:16:39;4.60;99.90
24686;DHT22;12804;51.176;4.452;2024-02-28T01:19:05;4.60;99.90
24686;DHT22;12804;51.176;4.452;2024-02-28T01:21:31;4.60;99.90
24686;DHT22;12804;51.176;4.452;2024-02-28T01:23:56;4.60;99.90
24686;DHT22;12804;51.176;4.452;2024-02-28T01:26:22;4.50;99.90
24686;DHT22;12804;51.176;4.452;2024-02-28T01:28:50;4.40;99.90
24686;DHT22;12804;51.176;4.452;2024-02-28T01:31:15;4.50;99.90
24686;DHT22;12804;51.176;4.452;2024-02-28T01:33:41;4.40;99.90
24686;DHT22;12804;51.176;4.452;2024-02-28T01:36:07;4.40;99.90
24686;DHT22;12804;51.176;4.452;2024-02-28T01:38:33;4.40;99.90
24686;DHT22;12804;51.176;4.452;2024-02-28T01:40:58;4.40;99.90
24686;DHT22;12804;51.176;4.452;2024-02-28T01:43:24;4.40;99.90
24686;DHT22;12804;51.176;4.452;2024-02-28T01:45:50;4.30;99.90
24686;DHT22;12804;51.176;4.452;2024-02-28T01:48:16;4.20;99.90
24686;DHT22;12804;51.176;4.452;2024-02-28T01:50:42;4.20;99.90
24686;DHT22;12804;51.176;4.452;2024-02-28T01:53:09;4.30;99.90
24686;DHT22;12804;51.176;4.452;2024-02-28T01:55:37;4.30;99.90
24686;DHT22;12804;51.176;4.452;2024-02-28T01:58:04;4.40;99.90
24686;DHT22;12804;51.176;4.452;2024-02-28T02:00:33;4.30;99.90
24686;DHT22;12804;51.176;4.452;2024-02-28T02:03:02;4.30;99.90
24686;DHT22;12804;51.176;4.452;2024-02-28T02:05:29;4.30;99.90
24686;DHT22;12804;51.176;4.452;2024-02-28T02:07:57;4.30;99.90
24686;DHT22;12804;51.176;4.452;2024-02-28T02:10:23;4.10;99.90
24686;DHT22;12804;51.176;4.452;2024-02-28T02:12:49;4.20;99.90
24686;DHT22;12804;51.176;4.452;2024-02-28T02:15:15;4.10;99.90
24686;DHT22;12804;51.176;4.452;2024-02-28T02:17:41;4.20;99.90
24686;DHT22;12804;51.176;4.452;2024-02-28T02:20:10;4.20;99.90
24686;DHT22;12804;51.176;4.452;2024-02-28T02:22:37;4.20;99.90
24686;DHT22;12804;51.176;4.452;2024-02-28T02:25:06;4.20;99.90
24686;DHT22;12804;51.176;4.452;2024-02-28T02:27:32;4.30;99.90
24686;DHT22;12804;51.176;4.452;2024-02-28T02:29:58;4.30;99.90
24686;DHT22;12804;51.176;4.452;2024-02-28T02:32:24;4.30;99.90
24686;DHT22;12804;51.176;4.452;2024-02-28T02:34:50;4.30;99.90
24686;DHT22;12804;51.176;4.452;2024-02-28T02:37:16;4.10;99.90
24686;DHT22;12804;51.176;4.452;2024-02-28T02:39:43;4.10;99.90
24686;DHT22;12804;51.176;4.452;2024-02-28T02:42:09;4.10;99.90
24686;DHT22;12804;51.176;4.452;2024-02-28T02:44:34;4.10;99.90
24686;DHT22;12804;51.176;4.452;2024-02-28T02:47:00;4.10;99.90
24686;DHT22;12804;51.176;4.452;2024-02-28T02:49:26;4.10;99.90
24686;DHT22;12804;51.176;4.452;2024-02-28T02:51:52;4.00;99.90
24686;DHT22;12804;51.176;4.452;2024-02-28T02:54:17;4.00;99.90
24686;DHT22;12804;51.176;4.452;2024-02-28T02:56:43;4.10;99.90
24686;DHT22;12804;51.176;4.452;2024-02-28T02:59:12;4.10;99.90
24686;DHT22;12804;51.176;4.452;2024-02-28T03:01:38;4.10;99.90
24686;DHT22;12804;51.176;4.452;2024-02-28T03:04:04;4.10;99.90
24686;DHT22;12804;51.176;4.452;2024-02-28T03:06:30;4.10;99.90
24686;DHT22;12804;51.176;4.452;2024-02-28T03:08:57;4.10;99.90
24686;DHT22;12804;51.176;4.452;2024-02-28T03:11:23;4.00;99.90
24686;DHT22;12804;51.176;4.452;2024-02-28T03:13:50;4.00;99.90
24686;DHT22;12804;51.176;4.452;2024-02-28T03:16:15;4.00;99.90
24686;DHT22;12804;51.176;4.452;2024-02-28T03:18:41;4.00;99.90
24686;DHT22;12804;51.176;4.452;2024-02-28T03:21:07;4.00;99.90
24686;DHT22;12804;51.176;4.452;2024-02-28T03:23:33;4.00;99.90
24686;DHT22;12804;51.176;4.452;2024-02-28T03:26:01;4.10;99.90
24686;DHT22;12804;51.176;4.452;2024-02-28T03:28:28;4.10;99.90
24686;DHT22;12804;51.176;4.452;2024-02-28T03:30:54;4.10;99.90
24686;DHT22;12804;51.176;4.452;2024-02-28T03:33:20;4.10;99.90
24686;DHT22;12804;51.176;4.452;2024-02-28T03:35:47;4.10;99.90
24686;DHT22;12804;51.176;4.452;2024-02-28T03:38:13;4.00;99.90
24686;DHT22;12804;51.176;4.452;2024-02-28T03:40:39;4.00;99.90
24686;DHT22;12804;51.176;4.452;2024-02-28T03:43:04;4.00;99.90
24686;DHT22;12804;51.176;4.452;2024-02-28T03:45:30;4.00;99.90
24686;DHT22;12804;51.176;4.452;2024-02-28T03:47:56;4.00;99.90
24686;DHT22;12804;51.176;4.452;2024-02-28T03:50:22;4.00;99.90
24686;DHT22;12804;51.176;4.452;2024-02-28T03:52:47;4.00;99.90
24686;DHT22;12804;51.176;4.452;2024-02-28T03:55:15;4.00;99.90
24686;DHT22;12804;51.176;4.452;2024-02-28T03:57:41;3.90;99.90
24686;DHT22;12804;51.176;4.452;2024-02-28T04:00:07;3.80;99.90
24686;DHT22;12804;51.176;4.452;2024-02-28T04:02:39;3.80;99.90
24686;DHT22;12804;51.176;4.452;2024-02-28T04:05:06;3.80;99.90
24686;DHT22;12804;51.176;4.452;2024-02-28T04:07:32;3.90;99.90
24686;DHT22;12804;51.176;4.452;2024-02-28T04:09:57;4.00;99.90
24686;DHT22;12804;51.176;4.452;2024-02-28T04:12:23;4.00;99.90
24686;DHT22;12804;51.176;4.452;2024-02-28T04:14:49;4.00;99.90
24686;DHT22;12804;51.176;4.452;2024-02-28T04:17:15;4.00;99.90
24686;DHT22;12804;51.176;4.452;2024-02-28T04:19:41;4.10;99.90
24686;DHT22;12804;51.176;4.452;2024-02-28T04:22:06;4.10;99.90
24686;DHT22;12804;51.176;4.452;2024-02-28T04:24:32;4.10;99.90
24686;DHT22;12804;51.176;4.452;2024-02-28T04:26:58;4.00;99.90
24686;DHT22;12804;51.176;4.452;2024-02-28T04:29:25;3.90;99.90
24686;DHT22;12804;51.176;4.452;2024-02-28T04:31:51;3.80;99.90
24686;DHT22;12804;51.176;4.452;2024-02-28T04:34:17;3.70;99.90
24686;DHT22;12804;51.176;4.452;2024-02-28T04:36:42;3.60;99.90
24686;DHT22;12804;51.176;4.452;2024-02-28T04:39:08;3.60;99.90
24686;DHT22;12804;51.176;4.452;2024-02-28T04:41:34;3.60;99.90
24686;DHT22;12804;51.176;4.452;2024-02-28T04:44:00;3.50;99.90
24686;DHT22;12804;51.176;4.452;2024-02-28T04:46:25;3.40;99.90
24686;DHT22;12804;51.176;4.452;2024-02-28T04:48:51;3.30;99.90
24686;DHT22;12804;51.176;4.452;2024-02-28T04:51:17;3.20;99.90
24686;DHT22;12804;51.176;4.452;2024-02-28T04:53:43;3.30;99.90
24686;DHT22;12804;51.176;4.452;2024-02-28T04:56:09;3.40;99.90
24686;DHT22;12804;51.176;4.452;2024-02-28T04:58:36;3.50;99.90
24686;DHT22;12804;51.176;4.452;2024-02-28T05:01:02;3.50;99.90
24686;DHT22;12804;51.176;4.452;2024-02-28T05:03:28;3.60;99.90
24686;DHT22;12804;51.176;4.452;2024-02-28T05:05:54;3.50;99.90
24686;DHT22;12804;51.176;4.452;2024-02-28T05:08:20;3.40;99.90
24686;DHT22;12804;51.176;4.452;2024-02-28T05:10:47;3.50;99.90
24686;DHT22;12804;51.176;4.452;2024-02-28T05:13:13;3.50;99.90
24686;DHT22;12804;51.176;4.452;2024-02-28T05:15:38;3.50;99.90
24686;DHT22;12804;51.176;4.452;2024-02-28T05:18:04;3.50;99.90
24686;DHT22;12804;51.176;4.452;2024-02-28T05:20:30;3.30;99.90
24686;DHT22;12804;51.176;4.452;2024-02-28T05:22:57;3.30;99.90
24686;DHT22;12804;51.176;4.452;2024-02-28T05:25:23;3.20;99.90
24686;DHT22;12804;51.176;4.452;2024-02-28T05:27:48;3.20;99.90
24686;DHT22;12804;51.176;4.452;2024-02-28T05:30:14;3.20;99.90
24686;DHT22;12804;51.176;4.452;2024-02-28T05:32:40;3.20;99.90
24686;DHT22;12804;51.176;4.452;2024-02-28T05:35:06;3.30;99.90
24686;DHT22;12804;51.176;4.452;2024-02-28T05:37:32;3.30;99.90
24686;DHT22;12804;51.176;4.452;2024-02-28T05:39:57;3.20;99.90
24686;DHT22;12804;51.176;4.452;2024-02-28T05:42:23;3.20;99.90
24686;DHT22;12804;51.176;4.452;2024-02-28T05:44:50;3.20;99.90
24686;DHT22;12804;51.176;4.452;2024-02-28T05:47:16;3.20;99.90
24686;DHT22;12804;51.176;4.452;2024-02-28T05:49:42;3.20;99.90
24686;DHT22;12804;51.176;4.452;2024-02-28T05:52:09;3.20;99.90
24686;DHT22;12804;51.176;4.452;2024-02-28T05:54:35;3.20;99.90
24686;DHT22;12804;51.176;4.452;2024-02-28T05:57:00;3.20;99.90
24686;DHT22;12804;51.176;4.452;2024-02-28T05:59:26;3.20;99.90
24686;DHT22;12804;51.176;4.452;2024-02-28T06:01:52;3.20;99.90
24686;DHT22;12804;51.176;4.452;2024-02-28T06:04:18;3.20;99.90
24686;DHT22;12804;51.176;4.452;2024-02-28T06:06:44;3.20;99.90
24686;DHT22;12804;51.176;4.452;2024-02-28T06:09:10;3.20;99.90
24686;DHT22;12804;51.176;4.452;2024-02-28T06:11:36;3.10;99.90
24686;DHT22;12804;51.176;4.452;2024-02-28T06:14:02;3.10;99.90
24686;DHT22;12804;51.176;4.452;2024-02-28T06:16:30;3.20;99.90
24686;DHT22;12804;51.176;4.452;2024-02-28T06:18:56;3.30;99.90
24686;DHT22;12804;51.176;4.452;2024-02-28T06:21:24;3.30;99.90
24686;DHT22;12804;51.176;4.452;2024-02-28T06:23:51;3.30;99.90
24686;DHT22;12804;51.176;4.452;2024-02-28T06:26:16;3.40;99.90
24686;DHT22;12804;51.176;4.452;2024-02-28T06:28:44;3.40;99.90
24686;DHT22;12804;51.176;4.452;2024-02-28T06:31:17;3.50;99.90
24686;DHT22;12804;51.176;4.452;2024-02-28T06:33:44;3.50;99.90
24686;DHT22;12804;51.176;4.452;2024-02-28T06:36:09;3.50;99.90
24686;DHT22;12804;51.176;4.452;2024-02-28T06:38:35;3.40;99.90
24686;DHT22;12804;51.176;4.452;2024-02-28T06:41:03;3.50;99.90
24686;DHT22;12804;51.176;4.452;2024-02-28T06:43:30;3.50;99.90
24686;DHT22;12804;51.176;4.452;2024-02-28T06:45:57;3.50;99.90
24686;DHT22;12804;51.176;4.452;2024-02-28T06:48:23;3.50;99.90
24686;DHT22;12804;51.176;4.452;2024-02-28T06:50:49;3.60;99.90
24686;DHT22;12804;51.176;4.452;2024-02-28T06:53:15;3.60;99.90
24686;DHT22;12804;51.176;4.452;2024-02-28T06:55:40;3.60;99.90
24686;DHT22;12804;51.176;4.452;2024-02-28T06:58:06;3.60;99.90
24686;DHT22;12804;51.176;4.452;2024-02-28T07:00:32;3.70;99.90
24686;DHT22;12804;51.176;4.452;2024-02-28T07:02:58;4.00;99.90
24686;DHT22;12804;51.176;4.452;2024-02-28T07:05:23;4.20;99.90
24686;DHT22;12804;51.176;4.452;2024-02-28T07:07:50;4.10;99.90
24686;DHT22;12804;51.176;4.452;2024-02-28T07:10:15;4.00;99.90
24686;DHT22;12804;51.176;4.452;2024-02-28T07:12:41;3.90;99.90
24686;DHT22;12804;51.176;4.452;2024-02-28T07:15:07;3.90;99.90
24686;DHT22;12804;51.176;4.452;2024-02-28T07:17:33;4.00;99.90
24686;DHT22;12804;51.176;4.452;2024-02-28T07:19:59;4.60;99.90
24686;DHT22;12804;51.176;4.452;2024-02-28T07:22:25;4.40;99.90
24686;DHT22;12804;51.176;4.452;2024-02-28T07:24:50;4.20;99.90
24686;DHT22;12804;51.176;4.452;2024-02-28T07:27:16;4.10;99.90
24686;DHT22;12804;51.176;4.452;2024-02-28T07:29:42;4.20;99.90
24686;DHT22;12804;51.176;4.452;2024-02-28T07:32:08;4.20;99.90
24686;DHT22;12804;51.176;4.452;2024-02-28T07:34:34;4.20;99.90
24686;DHT22;12804;51.176;4.452;2024-02-28T07:37:00;4.30;99.90
24686;DHT22;12804;51.176;4.452;2024-02-28T07:39:25;4.40;99.90
24686;DHT22;12804;51.176;4.452;2024-02-28T07:41:52;4.40;99.90
24686;DHT22;12804;51.176;4.452;2024-02-28T07:44:18;4.50;99.90
24686;DHT22;12804;51.176;4.452;2024-02-28T07:46:44;4.40;99.90
24686;DHT22;12804;51.176;4.452;2024-02-28T07:49:10;4.50;99.90
24686;DHT22;12804;51.176;4.452;2024-02-28T07:51:36;4.40;99.90
24686;DHT22;12804;51.176;4.452;2024-02-28T07:54:02;4.50;99.90
24686;DHT22;12804;51.176;4.452;2024-02-28T07:56:29;4.50;99.90
24686;DHT22;12804;51.176;4.452;2024-02-28T07:58:55;4.60;99.90
24686;DHT22;12804;51.176;4.452;2024-02-28T08:01:20;4.50;99.90
24686;DHT22;12804;51.176;4.452;2024-02-28T08:03:48;4.70;99.90
24686;DHT22;12804;51.176;4.452;2024-02-28T08:06:14;4.80;99.90
24686;DHT22;12804;51.176;4.452;2024-02-28T08:08:39;5.10;99.90
24686;DHT22;12804;51.176;4.452;2024-02-28T08:11:05;5.30;99.90
24686;DHT22;12804;51.176;4.452;2024-02-28T08:13:32;5.30;99.90
24686;DHT22;12804;51.176;4.452;2024-02-28T08:15:58;5.20;99.90
24686;DHT22;12804;51.176;4.452;2024-02-28T08:18:25;5.10;99.90
24686;DHT22;12804;51.176;4.452;2024-02-28T08:20:51;5.00;99.90
24686;DHT22;12804;51.176;4.452;2024-02-28T08:23:18;5.00;99.90
24686;DHT22;12804;51.176;4.452;2024-02-28T08:25:44;5.00;99.90
24686;DHT22;12804;51.176;4.452;2024-02-28T08:28:10;5.10;99.90
24686;DHT22;12804;51.176;4.452;2024-02-28T08:30:35;5.40;99.90
24686;DHT22;12804;51.176;4.452;2024-02-28T08:33:01;5.50;99.90
24686;DHT22;12804;51.176;4.452;2024-02-28T08:35:27;5.50;99.90
24686;DHT22;12804;51.176;4.452;2024-02-28T08:37:53;5.70;99.90
24686;DHT22;12804;51.176;4.452;2024-02-28T08:40:19;5.70;99.90
24686;DHT22;12804;51.176;4.452;2024-02-28T08:42:45;5.90;99.90
24686;DHT22;12804;51.176;4.452;2024-02-28T08:45:11;5.80;99.90
24686;DHT22;12804;51.176;4.452;2024-02-28T08:47:37;5.80;99.90
24686;DHT22;12804;51.176;4.452;2024-02-28T08:50:03;5.70;99.90
24686;DHT22;12804;51.176;4.452;2024-02-28T08:52:30;5.80;99.90
24686;DHT22;12804;51.176;4.452;2024-02-28T08:54:56;5.80;99.90
24686;DHT22;12804;51.176;4.452;2024-02-28T08:57:21;5.90;99.90
24686;DHT22;12804;51.176;4.452;2024-02-28T08:59:49;5.80;99.90
24686;DHT22;12804;51.176;4.452;2024-02-28T09:02:15;5.90;99.90
24686;DHT22;12804;51.176;4.452;2024-02-28T09:04:41;5.80;99.90
24686;DHT22;12804;51.176;4.452;2024-02-28T09:07:06;5.90;99.90
24686;DHT22;12804;51.176;4.452;2024-02-28T09:09:32;5.90;99.90
24686;DHT22;12804;51.176;4.452;2024-02-28T09:12:03;6.00;99.90
24686;DHT22;12804;51.176;4.452;2024-02-28T09:14:29;6.00;99.90
24686;DHT22;12804;51.176;4.452;2024-02-28T09:16:55;6.00;99.90
24686;DHT22;12804;51.176;4.452;2024-02-28T09:19:31;6.10;99.90
24686;DHT22;12804;51.176;4.452;2024-02-28T09:21:57;6.10;99.90
24686;DHT22;12804;51.176;4.452;2024-02-28T09:24:24;6.20;99.90
24686;DHT22;12804;51.176;4.452;2024-02-28T09:26:50;6.20;99.90
24686;DHT22;12804;51.176;4.452;2024-02-28T09:29:16;6.20;99.90
24686;DHT22;12804;51.176;4.452;2024-02-28T09:31:42;6.30;99.90
24686;DHT22;12804;51.176;4.452;2024-02-28T09:34:07;6.30;99.90
24686;DHT22;12804;51.176;4.452;2024-02-28T09:36:44;6.30;99.90
24686;DHT22;12804;51.176;4.452;2024-02-28T09:39:14;6.50;99.90
24686;DHT22;12804;51.176;4.452;2024-02-28T09:41:41;6.60;99.90
24686;DHT22;12804;51.176;4.452;2024-02-28T09:44:07;6.70;99.90
24686;DHT22;12804;51.176;4.452;2024-02-28T09:46:34;7.10;99.90
24686;DHT22;12804;51.176;4.452;2024-02-28T09:49:04;7.20;99.90
24686;DHT22;12804;51.176;4.452;2024-02-28T09:51:34;7.20;99.90
24686;DHT22;12804;51.176;4.452;2024-02-28T09:54:02;7.20;99.90
24686;DHT22;12804;51.176;4.452;2024-02-28T09:56:29;7.20;99.90
24686;DHT22;12804;51.176;4.452;2024-02-28T09:58:55;7.30;99.90
24686;DHT22;12804;51.176;4.452;2024-02-28T10:01:25;7.70;99.90
24686;DHT22;12804;51.176;4.452;2024-02-28T10:03:52;7.70;99.90
24686;DHT22;12804;51.176;4.452;2024-02-28T10:06:19;7.60;99.90
24686;DHT22;12804;51.176;4.452;2024-02-28T10:08:45;7.70;99.90
24686;DHT22;12804;51.176;4.452;2024-02-28T10:11:23;7.80;99.90
24686;DHT22;12804;51.176;4.452;2024-02-28T10:13:50;7.80;99.90
24686;DHT22;12804;51.176;4.452;2024-02-28T10:16:16;8.10;99.90
24686;DHT22;12804;51.176;4.452;2024-02-28T10:18:43;8.20;99.90
24686;DHT22;12804;51.176;4.452;2024-02-28T10:21:09;8.20;99.90
24686;DHT22;12804;51.176;4.452;2024-02-28T10:23:36;8.10;99.90
24686;DHT22;12804;51.176;4.452;2024-02-28T10:26:02;8.30;99.90
24686;DHT22;12804;51.176;4.452;2024-02-28T10:28:29;8.30;99.90
24686;DHT22;12804;51.176;4.452;2024-02-28T10:30:55;8.30;99.90
24686;DHT22;12804;51.176;4.452;2024-02-28T10:33:21;8.60;99.90
24686;DHT22;12804;51.176;4.452;2024-02-28T10:35:50;8.70;99.90
24686;DHT22;12804;51.176;4.452;2024-02-28T10:38:20;8.50;99.90
24686;DHT22;12804;51.176;4.452;2024-02-28T10:40:47;8.70;99.90
24686;DHT22;12804;51.176;4.452;2024-02-28T10:43:16;8.70;99.90
24686;DHT22;12804;51.176;4.452;2024-02-28T10:45:43;8.70;99.90
24686;DHT22;12804;51.176;4.452;2024-02-28T10:48:09;8.70;99.90
24686;DHT22;12804;51.176;4.452;2024-02-28T10:50:36;8.60;99.90
24686;DHT22;12804;51.176;4.452;2024-02-28T10:53:03;8.50;99.90
24686;DHT22;12804;51.176;4.452;2024-02-28T10:55:34;8.40;99.90
24686;DHT22;12804;51.176;4.452;2024-02-28T10:58:07;8.30;99.90
24686;DHT22;12804;51.176;4.452;2024-02-28T11:00:36;8.30;99.90
24686;DHT22;12804;51.176;4.452;2024-02-28T11:03:04;8.40;99.90
24686;DHT22;12804;51.176;4.452;2024-02-28T11:05:44;8.60;99.90
24686;DHT22;12804;51.176;4.452;2024-02-28T11:08:24;8.70;99.90
24686;DHT22;12804;51.176;4.452;2024-02-28T11:11:03;9.00;99.90
24686;DHT22;12804;51.176;4.452;2024-02-28T11:13:30;8.80;99.90
24686;DHT22;12804;51.176;4.452;2024-02-28T11:16:09;8.80;99.90
24686;DHT22;12804;51.176;4.452;2024-02-28T11:18:35;8.80;99.90
24686;DHT22;12804;51.176;4.452;2024-02-28T11:21:01;8.80;99.90
24686;DHT22;12804;51.176;4.452;2024-02-28T11:23:36;8.90;99.90
24686;DHT22;12804;51.176;4.452;2024-02-28T11:26:03;9.00;99.90
24686;DHT22;12804;51.176;4.452;2024-02-28T11:28:29;9.00;99.90
24686;DHT22;12804;51.176;4.452;2024-02-28T11:30:55;9.00;99.90
24686;DHT22;12804;51.176;4.452;2024-02-28T11:33:21;9.10;99.90
24686;DHT22;12804;51.176;4.452;2024-02-28T11:35:59;9.00;99.90
24686;DHT22;12804;51.176;4.452;2024-02-28T11:38:26;8.80;99.90
24686;DHT22;12804;51.176;4.452;2024-02-28T11:40:53;8.80;99.90
24686;DHT22;12804;51.176;4.452;2024-02-28T11:43:19;9.00;99.90
24686;DHT22;12804;51.176;4.452;2024-02-28T11:45:45;9.10;99.90
24686;DHT22;12804;51.176;4.452;2024-02-28T11:48:13;9.00;99.90
24686;DHT22;12804;51.176;4.452;2024-02-28T11:50:39;9.00;99.90
24686;DHT22;12804;51.176;4.452;2024-02-28T11:53:06;9.00;99.90
24686;DHT22;12804;51.176;4.452;2024-02-28T11:55:33;9.20;99.90
24686;DHT22;12804;51.176;4.452;2024-02-28T11:58:08;9.30;99.90
24686;DHT22;12804;51.176;4.452;2024-02-28T12:00:34;9.10;99.90
24686;DHT22;12804;51.176;4.452;2024-02-28T12:03:05;9.30;99.90
24686;DHT22;12804;51.176;4.452;2024-02-28T12:05:34;9.20;99.90
24686;DHT22;12804;51.176;4.452;2024-02-28T12:08:04;9.20;99.90
24686;DHT22;12804;51.176;4.452;2024-02-28T12:10:30;9.30;99.90
24686;DHT22;12804;51.176;4.452;2024-02-28T12:13:01;9.40;99.90
24686;DHT22;12804;51.176;4.452;2024-02-28T12:15:30;9.50;99.90
24686;DHT22;12804;51.176;4.452;2024-02-28T12:17:56;9.40;99.90
24686;DHT22;12804;51.176;4.452;2024-02-28T12:20:23;9.40;99.90
24686;DHT22;12804;51.176;4.452;2024-02-28T12:22:49;9.20;99.90
24686;DHT22;12804;51.176;4.452;2024-02-28T12:25:15;9.30;99.90
24686;DHT22;12804;51.176;4.452;2024-02-28T12:27:41;9.30;99.90
24686;DHT22;12804;51.176;4.452;2024-02-28T12:30:07;9.50;99.90
24686;DHT22;12804;51.176;4.452;2024-02-28T12:32:33;9.60;99.90
24686;DHT22;12804;51.176;4.452;2024-02-28T12:34:59;9.70;99.90
24686;DHT22;12804;51.176;4.452;2024-02-28T12:37:25;9.90;99.90
24686;DHT22;12804;51.176;4.452;2024-02-28T12:39:51;9.90;99.90
24686;DHT22;12804;51.176;4.452;2024-02-28T12:42:18;10.30;99.90
24686;DHT22;12804;51.176;4.452;2024-02-28T12:44:44;10.20;99.90
24686;DHT22;12804;51.176;4.452;2024-02-28T12:47:12;9.90;99.90
24686;DHT22;12804;51.176;4.452;2024-02-28T12:49:38;9.70;99.90
24686;DHT22;12804;51.176;4.452;2024-02-28T12:52:04;9.70;99.90
24686;DHT22;12804;51.176;4.452;2024-02-28T12:54:30;9.50;99.90
24686;DHT22;12804;51.176;4.452;2024-02-28T12:56:56;9.50;99.90
24686;DHT22;12804;51.176;4.452;2024-02-28T12:59:22;9.60;99.90
24686;DHT22;12804;51.176;4.452;2024-02-28T13:01:47;9.80;99.90
24686;DHT22;12804;51.176;4.452;2024-02-28T13:04:13;9.80;99.90
24686;DHT22;12804;51.176;4.452;2024-02-28T13:06:39;9.70;99.90
24686;DHT22;12804;51.176;4.452;2024-02-28T13:09:06;9.80;99.90
24686;DHT22;12804;51.176;4.452;2024-02-28T13:11:38;9.90;99.90
24686;DHT22;12804;51.176;4.452;2024-02-28T13:14:04;10.00;99.90
24686;DHT22;12804;51.176;4.452;2024-02-28T13:16:30;10.10;99.90
24686;DHT22;12804;51.176;4.452;2024-02-28T13:18:56;10.20;99.90
24686;DHT22;12804;51.176;4.452;2024-02-28T13:21:22;10.50;99.90
24686;DHT22;12804;51.176;4.452;2024-02-28T13:23:49;10.40;99.90
24686;DHT22;12804;51.176;4.452;2024-02-28T13:26:15;10.40;99.90
24686;DHT22;12804;51.176;4.452;2024-02-28T13:28:44;10.60;99.90
24686;DHT22;12804;51.176;4.452;2024-02-28T13:31:10;10.80;99.90
24686;DHT22;12804;51.176;4.452;2024-02-28T13:33:36;11.00;99.90
24686;DHT22;12804;51.176;4.452;2024-02-28T13:36:03;10.90;99.90
24686;DHT22;12804;51.176;4.452;2024-02-28T13:38:29;10.70;99.90
24686;DHT22;12804;51.176;4.452;2024-02-28T13:40:56;10.90;99.90
24686;DHT22;12804;51.176;4.452;2024-02-28T13:43:22;10.80;99.90
24686;DHT22;12804;51.176;4.452;2024-02-28T13:45:49;11.10;99.90
24686;DHT22;12804;51.176;4.452;2024-02-28T13:48:22;11.10;99.90
24686;DHT22;12804;51.176;4.452;2024-02-28T13:50:52;11.10;99.90
24686;DHT22;12804;51.176;4.452;2024-02-28T13:53:18;11.00;99.90
24686;DHT22;12804;51.176;4.452;2024-02-28T13:55:45;11.20;99.90
24686;DHT22;12804;51.176;4.452;2024-02-28T13:58:12;11.40;99.90
24686;DHT22;12804;51.176;4.452;2024-02-28T14:00:38;11.30;99.90
24686;DHT22;12804;51.176;4.452;2024-02-28T14:03:05;11.30;99.90
24686;DHT22;12804;51.176;4.452;2024-02-28T14:05:32;11.60;99.90
24686;DHT22;12804;51.176;4.452;2024-02-28T14:07:58;11.40;99.90
24686;DHT22;12804;51.176;4.452;2024-02-28T14:10:25;11.00;99.90
24686;DHT22;12804;51.176;4.452;2024-02-28T14:12:51;10.90;99.90
24686;DHT22;12804;51.176;4.452;2024-02-28T14:15:20;10.90;99.90
24686;DHT22;12804;51.176;4.452;2024-02-28T14:17:46;10.90;99.90
24686;DHT22;12804;51.176;4.452;2024-02-28T14:20:12;10.80;94.50
24686;DHT22;12804;51.176;4.452;2024-02-28T14:22:39;10.70;97.10
24686;DHT22;12804;51.176;4.452;2024-02-28T14:25:18;10.70;93.00
24686;DHT22;12804;51.176;4.452;2024-02-28T14:27:46;10.90;87.60
24686;DHT22;12804;51.176;4.452;2024-02-28T14:30:13;10.90;79.40
24686;DHT22;12804;51.176;4.452;2024-02-28T14:32:40;11.10;57.50
24686;DHT22;12804;51.176;4.452;2024-02-28T14:35:08;11.30;49.80
24686;DHT22;12804;51.176;4.452;2024-02-28T14:37:36;11.40;44.70
24686;DHT22;12804;51.176;4.452;2024-02-28T14:40:03;11.80;35.60
24686;DHT22;12804;51.176;4.452;2024-02-28T14:42:44;12.00;10.20
24686;DHT22;12804;51.176;4.452;2024-02-28T14:45:14;11.50;23.80
24686;DHT22;12804;51.176;4.452;2024-02-28T14:47:40;11.60;23.00
24686;DHT22;12804;51.176;4.452;2024-02-28T14:50:07;11.60;30.00
24686;DHT22;12804;51.176;4.452;2024-02-28T14:52:36;11.80;21.50
24686;DHT22;12804;51.176;4.452;2024-02-28T14:55:03;11.90;5.60
24686;DHT22;12804;51.176;4.452;2024-02-28T14:57:29;11.60;21.30
24686;DHT22;12804;51.176;4.452;2024-02-28T14:59:57;11.60;30.70
24686;DHT22;12804;51.176;4.452;2024-02-28T15:02:23;11.60;23.60
24686;DHT22;12804;51.176;4.452;2024-02-28T15:04:48;11.40;31.50
24686;DHT22;12804;51.176;4.452;2024-02-28T15:07:16;11.30;39.70
24686;DHT22;12804;51.176;4.452;2024-02-28T15:09:41;11.20;47.10
24686;DHT22;12804;51.176;4.452;2024-02-28T15:12:08;10.90;63.90
24686;DHT22;12804;51.176;4.452;2024-02-28T15:14:34;10.90;73.10
24686;DHT22;12804;51.176;4.452;2024-02-28T15:17:00;10.70;81.90
24686;DHT22;12804;51.176;4.452;2024-02-28T15:19:27;10.60;86.80
24686;DHT22;12804;51.176;4.452;2024-02-28T15:21:54;10.60;87.70
24686;DHT22;12804;51.176;4.452;2024-02-28T15:24:21;10.60;93.00
24686;DHT22;12804;51.176;4.452;2024-02-28T15:26:47;10.60;91.00
24686;DHT22;12804;51.176;4.452;2024-02-28T15:29:15;10.60;92.90
24686;DHT22;12804;51.176;4.452;2024-02-28T15:31:41;10.50;95.00
24686;DHT22;12804;51.176;4.452;2024-02-28T15:34:07;10.50;97.20
24686;DHT22;12804;51.176;4.452;2024-02-28T15:36:33;10.60;96.60
24686;DHT22;12804;51.176;4.452;2024-02-28T15:38:59;10.70;92.10